createdAt,value
2018-11-23T00:02:03.941Z,56.55
2018-11-23T00:04:33.599Z,34.15
2018-11-23T00:07:03.756Z,25.35
2018-11-23T00:09:33.735Z,25.82
2018-11-23T00:12:04.712Z,27.22
2018-11-23T00:14:36.242Z,25.40
2018-11-23T00:17:05.726Z,23.77
2018-11-23T00:19:36.008Z,23.20
2018-11-23T00:22:06.317Z,23.77
2018-11-23T00:24:36.223Z,22.40
2018-11-23T00:27:07.382Z,19.90
2018-11-23T00:29:37.006Z,23.55
2018-11-23T00:32:07.917Z,22.07
2018-11-23T00:34:47.288Z,22.27
2018-11-23T00:37:23.905Z,22.87
2018-11-23T00:40:05.175Z,22.32
2018-11-23T00:42:45.512Z,24.85
2018-11-23T00:45:23.904Z,23.52
2018-11-23T00:48:05.360Z,21.75
2018-11-23T00:50:43.261Z,25.52
2018-11-23T00:53:23.725Z,24.50
2018-11-23T00:56:02.068Z,23.15
2018-11-23T00:58:42.139Z,24.23
2018-11-23T01:01:22.225Z,23.87
2018-11-23T01:04:02.141Z,24.90
2018-11-23T01:06:41.433Z,24.72
2018-11-23T01:09:22.623Z,24.70
2018-11-23T01:12:01.841Z,26.30
2018-11-23T01:14:40.906Z,25.52
2018-11-23T01:17:20.523Z,27.80
2018-11-23T01:20:00.339Z,24.45
2018-11-23T01:22:39.181Z,24.55
2018-11-23T01:25:19.872Z,23.98
2018-11-23T01:28:03.919Z,23.32
2018-11-23T01:30:43.629Z,24.50
2018-11-23T01:33:21.746Z,24.25
2018-11-23T01:36:03.386Z,23.60
2018-11-23T01:38:43.653Z,24.20
2018-11-23T01:41:21.895Z,22.58
2018-11-23T01:44:01.633Z,23.05
2018-11-23T01:46:40.676Z,24.55
2018-11-23T01:49:19.942Z,22.95
2018-11-23T01:52:00.684Z,24.70
2018-11-23T01:54:40.671Z,26.77
2018-11-23T01:57:20.918Z,24.25
2018-11-23T02:00:01.411Z,26.60
2018-11-23T02:02:40.373Z,26.12
2018-11-23T02:05:20.314Z,25.62
2018-11-23T02:07:59.381Z,23.73
2018-11-23T02:10:39.472Z,25.00
2018-11-23T02:13:17.961Z,26.40
2018-11-23T02:15:58.030Z,28.85
2018-11-23T02:18:37.445Z,27.73
2018-11-23T02:21:19.434Z,26.95
2018-11-23T02:23:59.029Z,26.48
2018-11-23T02:26:39.195Z,25.92
2018-11-23T02:29:19.737Z,25.23
2018-11-23T02:31:59.527Z,26.73
2018-11-23T02:34:38.268Z,25.92
2018-11-23T02:37:20.610Z,27.75
2018-11-23T02:39:59.026Z,27.40
2018-11-23T02:42:39.242Z,27.85
2018-11-23T02:45:21.607Z,27.65
2018-11-23T02:48:02.546Z,27.55
2018-11-23T02:50:41.240Z,27.40
2018-11-23T02:53:22.355Z,29.20
2018-11-23T02:56:02.472Z,28.90
2018-11-23T02:58:43.739Z,27.07
2018-11-23T03:01:21.980Z,22.45
2018-11-23T03:04:03.044Z,28.85
2018-11-23T03:06:41.961Z,31.17
2018-11-23T03:09:23.453Z,30.97
2018-11-23T03:12:03.893Z,28.73
2018-11-23T03:14:45.654Z,28.47
2018-11-23T03:17:25.653Z,28.10
2018-11-23T03:20:04.644Z,31.40
2018-11-23T03:22:45.137Z,28.67
2018-11-23T03:25:25.654Z,24.05
2018-11-23T03:28:04.767Z,26.70
2018-11-23T03:30:42.259Z,27.85
2018-11-23T03:33:23.009Z,30.30
2018-11-23T03:36:03.681Z,29.23
2018-11-23T03:38:42.393Z,32.65
2018-11-23T03:41:22.174Z,21.62
2018-11-23T03:44:02.315Z,30.17
2018-11-23T03:46:42.158Z,30.08
2018-11-23T03:49:20.869Z,29.40
2018-11-23T03:51:59.463Z,26.68
2018-11-23T03:54:28.777Z,27.52
2018-11-23T03:57:09.245Z,28.23
2018-11-23T03:59:45.656Z,26.52
2018-11-23T04:02:24.277Z,28.32
2018-11-23T04:05:03.071Z,29.52
2018-11-23T04:07:43.938Z,30.35
2018-11-23T04:10:24.551Z,26.20
2018-11-23T04:13:00.373Z,24.85
2018-11-23T04:15:34.528Z,28.50
2018-11-23T04:18:10.482Z,33.70
2018-11-23T04:20:51.095Z,25.85
2018-11-23T04:23:19.450Z,32.88
2018-11-23T04:25:47.425Z,32.10
2018-11-23T04:28:15.183Z,32.63
2018-11-23T04:30:43.470Z,34.95
2018-11-23T04:33:18.634Z,34.40
2018-11-23T04:36:02.324Z,31.85
2018-11-23T04:38:30.482Z,32.48
2018-11-23T04:40:58.422Z,32.93
2018-11-23T04:43:26.855Z,31.95
2018-11-23T04:45:54.834Z,34.25
2018-11-23T04:48:23.302Z,34.13
2018-11-23T04:50:51.343Z,35.55
2018-11-23T04:53:19.609Z,33.83
2018-11-23T04:55:49.301Z,35.58
2018-11-23T04:58:18.343Z,32.70
2018-11-23T05:00:55.790Z,33.23
2018-11-23T05:03:24.311Z,31.40
2018-11-23T05:05:53.701Z,33.48
2018-11-23T05:08:22.280Z,33.42
2018-11-23T05:10:58.404Z,32.90
2018-11-23T05:13:27.170Z,34.50
2018-11-23T05:15:56.405Z,35.23
2018-11-23T05:18:25.791Z,36.40
2018-11-23T05:21:05.649Z,35.75
2018-11-23T05:23:45.649Z,34.98
2018-11-23T05:26:24.927Z,34.30
2018-11-23T05:29:05.652Z,37.83
2018-11-23T05:31:45.648Z,35.15
2018-11-23T05:34:25.646Z,40.20
2018-11-23T05:37:05.541Z,39.45
2018-11-23T05:39:44.883Z,36.90
2018-11-23T05:42:24.745Z,39.00
2018-11-23T05:44:54.200Z,44.50
2018-11-23T05:47:33.234Z,42.08
2018-11-23T05:50:13.222Z,34.95
2018-11-23T05:52:42.625Z,36.83
2018-11-23T05:55:12.370Z,37.13
2018-11-23T05:57:49.234Z,35.43
2018-11-23T06:00:30.219Z,36.05
2018-11-23T06:03:08.999Z,40.17
2018-11-23T06:05:43.051Z,38.73
2018-11-23T06:08:14.244Z,39.73
2018-11-23T06:10:53.509Z,38.35
2018-11-23T06:13:32.628Z,39.48
2018-11-23T06:16:11.911Z,38.63
2018-11-23T06:18:52.525Z,38.15
2018-11-23T06:21:32.544Z,40.00
2018-11-23T06:24:12.339Z,40.90
2018-11-23T06:26:48.596Z,39.33
2018-11-23T06:29:19.567Z,42.73
2018-11-23T06:31:50.940Z,39.13
2018-11-23T06:34:22.788Z,25.27
2018-11-23T06:36:56.525Z,32.83
2018-11-23T06:39:33.541Z,34.35
2018-11-23T06:42:04.155Z,36.65
2018-11-23T06:44:38.685Z,35.95
2018-11-23T06:47:11.184Z,27.80
2018-11-23T06:49:46.149Z,36.93
2018-11-23T06:52:19.755Z,38.35
2018-11-23T06:54:54.933Z,39.58
2018-11-23T06:57:29.452Z,45.15
2018-11-23T07:00:01.326Z,37.73
2018-11-23T07:02:33.056Z,37.98
2018-11-23T07:05:07.434Z,41.65
2018-11-23T07:07:43.645Z,43.63
2018-11-23T07:10:14.326Z,39.23
2018-11-23T07:12:46.395Z,38.45
2018-11-23T07:15:18.656Z,39.73
2018-11-23T07:17:49.341Z,39.65
2018-11-23T07:20:21.584Z,40.52
2018-11-23T07:22:52.362Z,40.70
2018-11-23T07:25:25.349Z,38.20
2018-11-23T07:28:02.411Z,36.45
2018-11-23T07:30:37.403Z,38.95
2018-11-23T07:33:10.259Z,36.85
2018-11-23T07:35:42.987Z,37.55
2018-11-23T07:38:15.032Z,35.65
2018-11-23T07:40:52.049Z,38.15
2018-11-23T07:43:25.427Z,40.05
2018-11-23T07:45:56.539Z,38.05
2018-11-23T07:48:28.441Z,37.15
2018-11-23T07:51:09.822Z,37.30
2018-11-23T07:53:43.770Z,34.75
2018-11-23T07:56:22.851Z,36.08
2018-11-23T07:58:53.483Z,37.65
2018-11-23T08:01:24.480Z,37.55
2018-11-23T08:03:56.979Z,33.92
2018-11-23T08:06:31.637Z,32.83
2018-11-23T08:09:01.444Z,35.03
2018-11-23T08:14:16.795Z,35.55
2018-11-23T08:16:51.122Z,34.10
2018-11-23T08:19:23.326Z,35.85
2018-11-23T08:24:39.945Z,35.28
2018-11-23T08:27:15.590Z,35.00
2018-11-23T08:29:54.615Z,35.63
2018-11-23T08:32:29.140Z,35.43
2018-11-23T08:35:03.727Z,33.25
2018-11-23T08:37:39.011Z,35.17
2018-11-23T08:40:11.389Z,35.23
2018-11-23T08:42:46.787Z,36.77
2018-11-23T08:45:19.902Z,34.15
2018-11-23T08:47:53.050Z,33.92
2018-11-23T08:50:27.441Z,32.98
2018-11-23T08:53:02.965Z,32.80
2018-11-23T08:55:38.810Z,33.98
2018-11-23T08:58:11.610Z,32.48
2018-11-23T09:00:44.450Z,33.78
2018-11-23T09:03:16.679Z,30.80
2018-11-23T09:05:50.671Z,31.48
2018-11-23T09:10:59.884Z,35.58
2018-11-23T09:13:38.225Z,33.40
2018-11-23T09:16:09.723Z,34.90
2018-11-23T09:18:42.345Z,33.45
2018-11-23T09:21:13.410Z,31.97
2018-11-23T09:23:46.406Z,33.25
2018-11-23T09:26:16.897Z,31.37
2018-11-23T09:28:48.591Z,33.20
2018-11-23T09:31:24.250Z,32.08
2018-11-23T09:33:55.885Z,32.88
2018-11-23T09:36:31.851Z,33.63
2018-11-23T09:39:12.940Z,32.30
2018-11-23T09:41:53.455Z,29.57
2018-11-23T09:44:33.222Z,30.08
2018-11-23T09:47:13.088Z,32.20
2018-11-23T09:49:53.404Z,32.58
2018-11-23T09:52:34.067Z,34.10
2018-11-23T09:55:10.483Z,31.57
2018-11-23T09:57:51.712Z,29.02
2018-11-23T10:00:35.441Z,32.17
2018-11-23T10:03:18.360Z,29.02
2018-11-23T10:05:59.677Z,30.62
2018-11-23T10:08:38.918Z,28.32
2018-11-23T10:11:17.033Z,28.85
2018-11-23T10:13:56.524Z,31.30
2018-11-23T10:16:36.267Z,27.07
2018-11-23T10:19:17.681Z,28.52
2018-11-23T10:21:57.775Z,28.90
2018-11-23T10:24:37.819Z,28.47
2018-11-23T10:27:17.410Z,28.98
2018-11-23T10:29:58.823Z,29.80
2018-11-23T10:32:38.414Z,26.77
2018-11-23T10:35:20.229Z,27.73
2018-11-23T10:38:01.717Z,28.83
2018-11-23T10:40:43.289Z,27.17
2018-11-23T10:43:22.828Z,27.58
2018-11-23T10:46:01.697Z,31.10
2018-11-23T10:48:40.709Z,27.05
2018-11-23T10:51:21.696Z,31.23
2018-11-23T10:54:01.521Z,24.40
2018-11-23T10:56:41.185Z,28.32
2018-11-23T10:59:20.899Z,20.37
2018-11-23T11:02:03.119Z,20.08
2018-11-23T11:04:44.005Z,21.70
2018-11-23T11:07:23.100Z,22.05
2018-11-23T11:10:01.701Z,24.30
2018-11-23T11:12:41.699Z,21.12
2018-11-23T11:15:22.779Z,18.20
2018-11-23T11:18:02.687Z,18.40
2018-11-23T11:20:41.699Z,23.20
2018-11-23T11:23:21.523Z,20.70
2018-11-23T11:26:00.789Z,24.90
2018-11-23T11:28:41.699Z,20.20
2018-11-23T11:31:21.700Z,19.02
2018-11-23T11:34:01.699Z,20.80
2018-11-23T11:36:41.677Z,18.70
2018-11-23T11:39:21.646Z,19.70
2018-11-23T11:42:01.362Z,20.00
2018-11-23T11:44:40.875Z,18.42
2018-11-23T11:47:21.700Z,19.37
2018-11-23T11:50:01.710Z,19.32
2018-11-23T11:52:41.708Z,20.30
2018-11-23T11:55:24.293Z,21.85
2018-11-23T11:58:03.535Z,19.32
2018-11-23T12:00:43.122Z,20.75
2018-11-23T12:03:22.994Z,22.48
2018-11-23T12:06:01.703Z,18.73
2018-11-23T12:08:40.282Z,23.75
2018-11-23T12:11:21.703Z,29.60
2018-11-23T12:14:01.702Z,21.75
2018-11-23T12:16:33.325Z,33.15
2018-11-23T12:19:09.476Z,22.35
2018-11-23T12:21:39.661Z,24.07
2018-11-23T12:24:19.575Z,22.67
2018-11-23T12:27:00.865Z,23.32
2018-11-23T12:29:41.645Z,20.55
2018-11-23T12:32:21.645Z,24.52
2018-11-23T12:35:01.644Z,34.23
2018-11-23T12:37:41.646Z,25.92
2018-11-23T12:40:22.544Z,24.18
2018-11-23T12:43:01.595Z,20.60
2018-11-23T12:45:41.646Z,36.95
2018-11-23T12:48:21.643Z,24.05
2018-11-23T12:51:01.643Z,24.43
2018-11-23T12:53:42.652Z,24.72
2018-11-23T12:56:22.930Z,32.83
2018-11-23T12:59:01.651Z,22.65
2018-11-23T13:01:41.643Z,33.90
2018-11-23T13:04:21.642Z,27.35
2018-11-23T13:07:03.291Z,40.35
2018-11-23T13:09:41.984Z,39.35
2018-11-23T13:12:21.299Z,24.18
2018-11-23T13:15:01.480Z,28.85
2018-11-23T13:17:41.638Z,24.63
2018-11-23T13:20:22.416Z,30.00
2018-11-23T13:23:02.411Z,24.50
2018-11-23T13:25:41.313Z,24.75
2018-11-23T13:28:20.619Z,24.07
2018-11-23T13:31:00.396Z,30.80
2018-11-23T13:33:39.925Z,34.03
2018-11-23T13:36:20.477Z,24.15
2018-11-23T13:39:01.628Z,22.77
2018-11-23T13:41:41.625Z,25.37
2018-11-23T13:44:21.622Z,24.02
2018-11-23T13:47:01.622Z,25.57
2018-11-23T13:49:41.528Z,29.12
2018-11-23T13:52:21.619Z,25.45
2018-11-23T13:54:59.376Z,26.37
2018-11-23T13:57:40.376Z,25.23
2018-11-23T14:00:23.680Z,29.52
2018-11-23T14:03:04.964Z,31.02
2018-11-23T14:05:46.412Z,30.75
2018-11-23T14:08:26.238Z,29.18
2018-11-23T14:11:05.970Z,32.73
2018-11-23T14:13:49.987Z,39.50
2018-11-23T14:16:29.351Z,33.73
2018-11-23T14:19:09.750Z,29.90
2018-11-23T14:21:51.608Z,27.07
2018-11-23T14:24:27.933Z,29.12
2018-11-23T14:27:06.937Z,30.75
2018-11-23T14:29:47.984Z,32.65
2018-11-23T14:32:27.594Z,32.13
2018-11-23T14:35:08.045Z,31.27
2018-11-23T14:37:46.624Z,30.57
2018-11-23T14:40:27.152Z,32.08
2018-11-23T14:43:06.505Z,28.73
2018-11-23T14:45:45.534Z,29.77
2018-11-23T14:48:25.033Z,32.33
2018-11-23T14:50:58.665Z,31.97
2018-11-23T14:53:35.317Z,31.17
2018-11-23T14:56:10.664Z,34.13
2018-11-23T14:58:45.383Z,33.65
2018-11-23T15:01:24.663Z,30.52
2018-11-23T15:04:04.105Z,41.28
2018-11-23T15:06:44.452Z,34.75
2018-11-23T15:09:23.036Z,33.50
2018-11-23T15:11:55.764Z,32.85
2018-11-23T15:14:36.212Z,23.75
2018-11-23T15:17:16.370Z,35.25
2018-11-23T15:19:56.150Z,22.80
2018-11-23T15:22:37.065Z,22.20
2018-11-23T15:25:16.751Z,39.60
2018-11-23T15:27:56.985Z,26.60
2018-11-23T15:30:40.961Z,28.92
2018-11-23T15:33:23.991Z,33.90
2018-11-23T15:36:04.094Z,33.00
2018-11-23T15:38:44.195Z,32.67
2018-11-23T15:41:23.949Z,34.88
2018-11-23T15:44:04.828Z,35.33
2018-11-23T15:46:45.754Z,36.00
2018-11-23T15:49:25.480Z,34.58
2018-11-23T15:52:02.960Z,33.98
2018-11-23T15:54:44.236Z,30.90
2018-11-23T15:57:18.788Z,37.03
2018-11-23T15:59:58.070Z,36.30
2018-11-23T16:02:36.653Z,35.08
2018-11-23T16:05:18.446Z,33.90
2018-11-23T16:07:57.864Z,33.92
2018-11-23T16:10:41.572Z,26.30
2018-11-23T16:13:20.934Z,69.22
2018-11-23T16:15:59.684Z,29.98
2018-11-23T16:18:40.091Z,30.57
2018-11-23T16:21:18.894Z,28.23
2018-11-23T16:23:58.198Z,29.75
2018-11-23T16:26:38.720Z,33.70
2018-11-23T16:29:18.801Z,32.40
2018-11-23T16:31:59.056Z,34.20
2018-11-23T16:34:38.806Z,34.18
2018-11-23T16:37:17.886Z,32.73
2018-11-23T16:39:58.737Z,34.23
2018-11-23T16:42:38.716Z,32.60
2018-11-23T16:45:25.221Z,29.85
2018-11-23T16:48:05.405Z,34.30
2018-11-23T16:50:46.307Z,31.50
2018-11-23T16:53:25.809Z,33.55
2018-11-23T16:56:05.598Z,38.85
2018-11-23T16:58:46.611Z,35.80
2018-11-23T17:01:26.488Z,31.57
2018-11-23T17:04:06.064Z,36.83
2018-11-23T17:06:46.145Z,35.30
2018-11-23T17:09:26.152Z,40.60
2018-11-23T17:12:07.451Z,43.15
2018-11-23T17:14:48.354Z,44.93
2018-11-23T17:17:28.233Z,39.25
2018-11-23T17:20:09.432Z,33.92
2018-11-23T17:22:50.207Z,33.45
2018-11-23T17:25:31.219Z,31.23
2018-11-23T17:28:11.547Z,32.63
2018-11-23T17:30:56.272Z,36.88
2018-11-23T17:33:35.928Z,38.50
2018-11-23T17:36:18.776Z,35.17
2018-11-23T17:38:57.383Z,36.95
2018-11-23T17:41:38.888Z,36.17
2018-11-23T17:44:19.360Z,34.92
2018-11-23T17:46:53.762Z,39.80
2018-11-23T17:49:32.872Z,35.75
2018-11-23T17:52:11.539Z,37.58
2018-11-23T17:54:51.300Z,35.80
2018-11-23T17:57:30.653Z,34.33
2018-11-23T18:00:12.983Z,37.88
2018-11-23T18:02:51.452Z,36.53
2018-11-23T18:05:33.211Z,33.15
2018-11-23T18:08:12.962Z,37.98
2018-11-23T18:10:53.894Z,38.02
2018-11-23T18:13:36.270Z,35.15
2018-11-23T18:16:16.048Z,36.17
2018-11-23T18:18:58.034Z,34.60
2018-11-23T18:21:40.105Z,37.40
2018-11-23T18:24:19.560Z,37.45
2018-11-23T18:27:00.688Z,39.65
2018-11-23T18:29:41.559Z,40.55
2018-11-23T18:32:24.163Z,36.53
2018-11-23T18:35:05.456Z,28.57
2018-11-23T18:37:45.475Z,40.73
2018-11-23T18:40:25.860Z,40.67
2018-11-23T18:43:14.760Z,39.90
2018-11-23T18:45:51.397Z,39.67
2018-11-23T18:48:31.572Z,44.23
2018-11-23T18:51:11.053Z,46.98
2018-11-23T18:53:50.199Z,47.90
2018-11-23T18:56:29.311Z,44.20
2018-11-23T18:59:09.153Z,45.92
2018-11-23T19:01:49.245Z,44.48
2018-11-23T19:04:30.913Z,42.67
2018-11-23T19:07:10.502Z,40.35
2018-11-23T19:09:49.945Z,39.55
2018-11-23T19:12:29.706Z,40.10
2018-11-23T19:15:09.013Z,39.67
2018-11-23T19:17:49.512Z,41.30
2018-11-23T19:20:25.334Z,45.38
2018-11-23T19:23:05.095Z,41.42
2018-11-23T19:25:44.943Z,38.73
2018-11-23T19:28:24.229Z,41.60
2018-11-23T19:31:05.123Z,41.92
2018-11-23T19:33:44.164Z,43.25
2018-11-23T19:36:26.254Z,37.70
2018-11-23T19:39:06.021Z,40.48
2018-11-23T19:41:45.239Z,37.13
2018-11-23T19:44:23.678Z,37.85
2018-11-23T19:47:03.817Z,36.70
2018-11-23T19:49:41.625Z,37.42
2018-11-23T19:52:22.803Z,35.17
2018-11-23T19:55:01.365Z,38.20
2018-11-23T19:57:41.084Z,41.70
2018-11-23T20:00:21.653Z,43.70
2018-11-23T20:03:01.618Z,58.78
2018-11-23T20:05:41.432Z,92.55
2018-11-23T20:08:21.398Z,60.48
2018-11-23T20:11:00.945Z,51.60
2018-11-23T20:13:41.651Z,50.17
2018-11-23T20:16:21.598Z,40.28
2018-11-23T20:19:01.654Z,40.85
2018-11-23T20:21:41.652Z,41.30
2018-11-23T20:24:20.445Z,41.08
2018-11-23T20:27:00.966Z,36.33
2018-11-23T20:29:39.976Z,35.98
2018-11-23T20:32:21.591Z,39.55
2018-11-23T20:35:01.362Z,40.48
2018-11-23T20:37:42.749Z,39.65
2018-11-23T20:40:25.866Z,38.10
2018-11-23T20:43:06.807Z,36.33
2018-11-23T20:45:46.999Z,39.78
2018-11-23T20:48:24.091Z,40.63
2018-11-23T20:51:05.532Z,40.30
2018-11-23T20:53:45.576Z,41.28
2018-11-23T20:56:25.288Z,40.67
2018-11-23T20:59:06.807Z,38.13
2018-11-23T21:01:46.326Z,38.95
2018-11-23T21:04:26.288Z,35.95
2018-11-23T21:07:05.036Z,39.75
2018-11-23T21:09:44.243Z,40.15
2018-11-23T21:12:24.440Z,39.90
2018-11-23T21:15:04.827Z,38.63
2018-11-23T21:17:44.018Z,39.73
2018-11-23T21:20:23.458Z,35.48
2018-11-23T21:23:04.205Z,38.88
2018-11-23T21:25:43.857Z,35.23
2018-11-23T21:28:23.033Z,39.48
2018-11-23T21:31:03.025Z,40.30
2018-11-23T21:33:40.968Z,37.93
2018-11-23T21:36:20.079Z,40.48
2018-11-23T21:39:00.223Z,39.65
2018-11-23T21:41:40.487Z,41.73
2018-11-23T21:44:19.206Z,43.08
2018-11-23T21:46:58.616Z,39.38
2018-11-23T21:49:37.865Z,42.10
2018-11-23T21:52:17.514Z,39.45
2018-11-23T21:54:56.892Z,40.92
2018-11-23T21:57:37.933Z,41.08
2018-11-23T22:00:18.920Z,43.02
2018-11-23T22:02:58.594Z,49.50
2018-11-23T22:05:37.007Z,46.55
2018-11-23T22:08:18.500Z,44.13
2018-11-23T22:10:59.119Z,37.78
2018-11-23T22:13:40.509Z,35.95
2018-11-23T22:16:20.625Z,37.13
2018-11-23T22:19:05.271Z,40.78
2018-11-23T22:21:43.812Z,41.95
2018-11-23T22:24:23.069Z,40.45
2018-11-23T22:27:02.640Z,37.40
2018-11-23T22:29:42.905Z,40.55
2018-11-23T22:32:21.233Z,38.20
2018-11-23T22:35:01.640Z,36.93
2018-11-23T22:37:35.276Z,34.95
2018-11-23T22:40:13.994Z,37.50
2018-11-23T22:42:58.561Z,37.38
2018-11-23T22:45:40.451Z,37.10
2018-11-23T22:48:18.944Z,35.13
2018-11-23T22:50:58.135Z,34.50
2018-11-23T22:53:39.148Z,36.77
2018-11-23T22:56:26.117Z,38.05
2018-11-23T22:59:06.333Z,40.35
2018-11-23T23:01:46.821Z,37.00
2018-11-23T23:04:26.613Z,38.17
2018-11-23T23:07:06.157Z,36.50
2018-11-23T23:09:49.057Z,41.58
2018-11-23T23:12:29.110Z,37.42
2018-11-23T23:15:09.681Z,41.13
2018-11-23T23:17:50.094Z,33.08
2018-11-23T23:20:29.110Z,34.13
2018-11-23T23:23:09.753Z,35.10
2018-11-23T23:25:49.045Z,37.63
2018-11-23T23:28:28.886Z,37.48
2018-11-23T23:31:09.000Z,38.83
2018-11-23T23:33:49.126Z,37.78
2018-11-23T23:36:27.938Z,35.38
2018-11-23T23:39:10.723Z,38.98
2018-11-23T23:41:51.636Z,38.35
2018-11-23T23:44:31.687Z,37.58
2018-11-23T23:47:11.399Z,38.20
2018-11-23T23:49:52.642Z,37.53
2018-11-23T23:52:31.638Z,37.40
2018-11-23T23:55:12.681Z,36.15
2018-11-23T23:57:50.079Z,35.80
